< < Back
Terminal Aerodrome Forecast


Current Version              Previous Versions:   1  2  3  4  5  6  7  8  9  

Terminal Aerodrome Forecast

357
FTUS42 KTAE 250500
TAFDHN
TAF
KDHN 250520Z 2506/2606 00000KT P6SM SKC
     FM251400 35006KT P6SM SKC
     FM260000 32003KT P6SM SKC=

Latest METAR

882
SAUS70 KWBC 250600 RRD
MTRDHN
METAR KDHN 250553Z AUTO 00000KT 10SM CLR 09/08 A3006 RMK AO2 SLP177
T00940078 10161 20089 402500089 58004


USA.gov is the U.S. government's official web portal to all federal, state and local government web resources and services.